createdAt,value
2018-05-03T00:03:24.168Z,11.10
2018-05-03T00:08:25.207Z,11.00
2018-05-03T00:13:26.198Z,11.10
2018-05-03T00:18:27.257Z,11.10
2018-05-03T00:23:28.190Z,11.10
2018-05-03T00:28:29.175Z,11.10
2018-05-03T00:33:30.922Z,10.80
2018-05-03T00:38:31.919Z,10.70
2018-05-03T00:43:33.663Z,10.80
2018-05-03T00:48:34.661Z,10.80
2018-05-03T00:53:35.649Z,10.80
2018-05-03T00:58:36.670Z,10.60
2018-05-03T01:03:38.433Z,10.60
2018-05-03T01:08:40.185Z,10.60
2018-05-03T01:13:41.186Z,10.60
2018-05-03T01:18:42.181Z,10.60
2018-05-03T01:23:43.176Z,10.60
2018-05-03T01:28:44.926Z,10.50
2018-05-03T01:33:45.911Z,10.40
2018-05-03T01:38:46.919Z,10.50
2018-05-03T01:43:47.911Z,10.50
2018-05-03T01:48:48.934Z,10.30
2018-05-03T01:53:49.935Z,10.20
2018-05-03T01:58:51.088Z,10.20
2018-05-03T02:03:52.123Z,10.20
2018-05-03T02:08:53.117Z,10.30
2018-05-03T02:13:54.129Z,10.30
2018-05-03T02:18:55.138Z,10.20
2018-05-03T02:23:56.139Z,10.30
2018-05-03T02:28:57.141Z,10.30
2018-05-03T02:33:58.142Z,10.30
2018-05-03T02:38:59.155Z,10.30
2018-05-03T02:44:00.159Z,10.40
2018-05-03T02:49:01.170Z,10.40
2018-05-03T02:54:02.179Z,10.40
2018-05-03T02:59:15.526Z,10.30
2018-05-03T03:04:35.249Z,10.30
2018-05-03T03:16:00.518Z,10.30
2018-05-03T03:27:07.242Z,10.10
2018-05-03T03:37:56.407Z,10.00
2018-05-03T03:43:14.366Z,10.10
2018-05-03T03:48:15.363Z,10.10
2018-05-03T03:53:16.389Z,10.20
2018-05-03T03:58:17.371Z,10.10
2018-05-03T04:03:18.366Z,10.10
2018-05-03T04:08:19.365Z,10.10
2018-05-03T04:13:21.113Z,10.00
2018-05-03T04:18:34.525Z,10.00
2018-05-03T04:23:47.981Z,10.00
2018-05-03T04:28:48.970Z,10.00
2018-05-03T04:33:49.984Z,10.10
2018-05-03T04:38:50.986Z,10.20
2018-05-03T04:43:51.996Z,10.10
2018-05-03T04:48:52.983Z,10.20
2018-05-03T04:53:54.030Z,10.20
2018-05-03T04:58:55.078Z,10.30
2018-05-03T05:03:56.114Z,10.30
2018-05-03T05:08:57.865Z,10.40
2018-05-03T05:13:58.878Z,10.40
2018-05-03T05:18:59.882Z,10.40
2018-05-03T05:24:00.882Z,10.50
2018-05-03T05:29:01.889Z,10.50
2018-05-03T05:34:02.890Z,10.50
2018-05-03T05:39:03.970Z,10.60
2018-05-03T05:44:04.910Z,10.70
2018-05-03T05:49:05.923Z,10.80
2018-05-03T05:54:06.914Z,10.90
2018-05-03T05:59:07.926Z,10.90
2018-05-03T06:04:08.964Z,10.90
2018-05-03T06:09:10.666Z,11.10
2018-05-03T06:14:11.673Z,11.00
2018-05-03T06:19:12.718Z,11.20
2018-05-03T06:24:14.467Z,11.30
2018-05-03T06:29:15.478Z,11.20
2018-05-03T06:34:16.493Z,11.30
2018-05-03T06:39:18.240Z,11.40
2018-05-03T06:44:19.253Z,11.40
2018-05-03T06:49:20.257Z,11.50
2018-05-03T06:54:21.269Z,11.60
2018-05-03T06:59:23.026Z,11.60
2018-05-03T07:04:24.855Z,11.70
2018-05-03T07:09:25.794Z,11.70
2018-05-03T07:14:26.806Z,11.80
2018-05-03T07:19:27.830Z,11.90
2018-05-03T07:24:28.818Z,12.00
2018-05-03T07:29:29.913Z,12.10
2018-05-03T07:34:30.829Z,12.20
2018-05-03T07:39:31.878Z,12.40
2018-05-03T07:44:32.892Z,12.50
2018-05-03T07:49:33.915Z,12.60
2018-05-03T07:54:34.909Z,12.80
2018-05-03T07:59:35.915Z,13.00
2018-05-03T08:04:36.902Z,13.10
2018-05-03T08:09:38.641Z,13.40
2018-05-03T08:14:39.650Z,13.30
2018-05-03T08:19:40.637Z,13.50
2018-05-03T08:24:41.619Z,14.00
2018-05-03T08:29:42.729Z,14.60
2018-05-03T08:34:43.742Z,14.80
2018-05-03T08:39:44.742Z,14.90
2018-05-03T08:44:45.803Z,14.50
2018-05-03T08:49:47.518Z,15.00
2018-05-03T08:54:48.505Z,14.90
2018-05-03T08:59:49.598Z,15.20
2018-05-03T09:04:50.655Z,15.40
2018-05-03T09:09:51.711Z,14.90
2018-05-03T09:14:52.762Z,14.90
2018-05-03T09:19:54.481Z,15.20
2018-05-03T09:24:55.469Z,15.20
2018-05-03T09:29:57.873Z,15.20
2018-05-03T09:34:59.590Z,15.60
2018-05-03T09:40:00.574Z,15.60
2018-05-03T09:45:01.560Z,16.10
2018-05-03T09:50:03.293Z,16.70
2018-05-03T09:55:04.294Z,16.70
2018-05-03T10:00:06.020Z,17.60
2018-05-03T10:05:07.009Z,17.50
2018-05-03T10:10:07.986Z,16.70
2018-05-03T10:15:09.702Z,16.60
2018-05-03T10:20:10.690Z,16.60
2018-05-03T10:25:11.667Z,17.00
2018-05-03T10:30:12.651Z,17.40
2018-05-03T10:35:14.361Z,17.80
2018-05-03T10:40:15.338Z,17.70
2018-05-03T10:45:16.344Z,18.30
2018-05-03T10:50:17.326Z,18.50
2018-05-03T10:55:18.302Z,18.50
2018-05-03T11:00:19.285Z,18.40
2018-05-03T11:05:20.289Z,18.20
2018-05-03T11:10:21.293Z,18.20
2018-05-03T11:15:22.282Z,18.60
2018-05-03T11:20:24.019Z,18.30
2018-05-03T11:25:25.006Z,18.30
2018-05-03T11:30:26.761Z,18.80
2018-05-03T11:35:27.767Z,18.80
2018-05-03T11:40:28.756Z,18.60
2018-05-03T11:45:29.748Z,18.10
2018-05-03T11:50:31.478Z,19.00
2018-05-03T11:55:32.485Z,18.90
2018-05-03T12:00:34.211Z,18.10
2018-05-03T12:05:35.222Z,18.10
2018-05-03T12:10:36.961Z,18.70
2018-05-03T12:15:37.953Z,18.70
2018-05-03T12:20:39.689Z,18.40
2018-05-03T12:25:40.677Z,18.40
2018-05-03T12:30:42.406Z,18.90
2018-05-03T12:35:43.397Z,18.90
2018-05-03T12:40:44.386Z,18.50
2018-05-03T12:45:45.374Z,18.60
2018-05-03T12:50:46.361Z,18.60
2018-05-03T12:55:47.365Z,19.30
2018-05-03T13:00:48.366Z,19.20
2018-05-03T13:05:49.342Z,19.20
2018-05-03T13:10:50.326Z,19.20
2018-05-03T13:15:51.313Z,19.10
2018-05-03T13:20:52.329Z,19.20
2018-05-03T13:25:54.066Z,18.90
2018-05-03T13:30:55.080Z,18.90
2018-05-03T13:35:56.057Z,19.40
2018-05-03T13:40:57.088Z,19.10
2018-05-03T13:45:58.036Z,19.00
2018-05-03T13:50:59.773Z,19.30
2018-05-03T13:56:00.741Z,19.30
2018-05-03T14:01:01.722Z,19.70
2018-05-03T14:06:03.473Z,18.70
2018-05-03T14:11:04.471Z,18.60
2018-05-03T14:16:06.219Z,19.00
2018-05-03T14:21:07.228Z,18.90
2018-05-03T14:26:08.232Z,19.20
2018-05-03T14:31:09.260Z,19.40
2018-05-03T14:36:10.957Z,19.60
2018-05-03T14:41:11.943Z,19.50
2018-05-03T14:46:13.678Z,18.90
2018-05-03T14:51:14.669Z,18.90
2018-05-03T14:56:15.672Z,19.20
2018-05-03T15:01:16.668Z,19.00
2018-05-03T15:06:17.649Z,18.70
2018-05-03T15:11:18.632Z,18.90
2018-05-03T15:16:19.777Z,19.30
2018-05-03T15:21:20.608Z,19.70
2018-05-03T15:26:21.597Z,19.70
2018-05-03T15:31:22.579Z,19.60
2018-05-03T15:36:23.557Z,19.30
2018-05-03T15:41:24.534Z,19.30
2018-05-03T15:46:25.522Z,19.40
2018-05-03T15:51:26.502Z,19.40
2018-05-03T15:56:27.494Z,19.30
2018-05-03T16:01:28.561Z,19.30
2018-05-03T16:06:30.209Z,19.10
2018-05-03T16:11:31.194Z,19.10
2018-05-03T16:16:32.188Z,19.30
2018-05-03T16:21:33.177Z,19.30
2018-05-03T16:26:34.187Z,19.30
2018-05-03T16:31:35.930Z,19.20
2018-05-03T16:36:36.930Z,19.10
2018-05-03T16:41:38.670Z,18.90
2018-05-03T16:46:39.711Z,18.80
2018-05-03T16:51:40.679Z,18.70
2018-05-03T16:56:41.675Z,18.70
2018-05-03T17:01:42.665Z,18.50
2018-05-03T17:06:43.651Z,18.40
2018-05-03T17:11:44.660Z,18.30
2018-05-03T17:16:45.672Z,18.10
2018-05-03T17:21:46.665Z,18.00
2018-05-03T17:26:47.649Z,17.90
2018-05-03T17:31:48.658Z,18.00
2018-05-03T17:36:50.387Z,18.00
2018-05-03T17:41:51.381Z,17.90
2018-05-03T17:46:53.130Z,17.80
2018-05-03T17:51:54.113Z,17.70
2018-05-03T17:56:55.127Z,17.70
2018-05-03T18:01:56.847Z,17.50
2018-05-03T18:06:57.846Z,17.40
2018-05-03T18:11:58.826Z,17.40
2018-05-03T18:16:59.833Z,17.30
2018-05-03T18:22:00.834Z,17.20
2018-05-03T18:27:01.813Z,17.10
2018-05-03T18:32:02.813Z,17.00
2018-05-03T18:37:04.570Z,16.70
2018-05-03T18:42:05.573Z,16.70
2018-05-03T18:47:06.578Z,16.60
2018-05-03T18:52:07.601Z,16.50
2018-05-03T18:57:08.594Z,16.30
2018-05-03T19:02:09.602Z,16.20
2018-05-03T19:07:10.590Z,16.20
2018-05-03T19:12:11.570Z,16.00
2018-05-03T19:17:12.546Z,15.90
2018-05-03T19:22:14.274Z,15.70
2018-05-03T19:27:15.266Z,15.70
2018-05-03T19:32:16.292Z,15.60
2018-05-03T19:37:17.279Z,15.50
2018-05-03T19:42:18.250Z,15.40
2018-05-03T19:47:19.973Z,15.30
2018-05-03T19:52:20.945Z,15.20
2018-05-03T19:57:21.919Z,15.20
2018-05-03T20:02:22.925Z,15.10
2018-05-03T20:07:23.910Z,15.00
2018-05-03T20:12:24.898Z,14.90
2018-05-03T20:17:25.891Z,14.80
2018-05-03T20:22:26.890Z,14.80
2018-05-03T20:27:27.853Z,14.70
2018-05-03T20:32:28.841Z,14.60
2018-05-03T20:37:29.831Z,14.60
2018-05-03T20:42:30.801Z,14.60
2018-05-03T20:47:31.797Z,14.50
2018-05-03T20:52:32.783Z,14.50
2018-05-03T20:57:34.564Z,14.20
2018-05-03T21:02:35.499Z,14.20
2018-05-03T21:07:36.497Z,14.20
2018-05-03T21:12:37.491Z,14.10
2018-05-03T21:17:38.475Z,14.00
2018-05-03T21:22:39.489Z,14.00
2018-05-03T21:27:40.485Z,13.90
2018-05-03T21:32:41.490Z,13.90
2018-05-03T21:37:42.529Z,13.80
2018-05-03T21:42:44.253Z,13.60
2018-05-03T21:47:45.243Z,13.50
2018-05-03T21:52:46.246Z,13.50
2018-05-03T21:57:47.237Z,13.50
2018-05-03T22:02:48.226Z,13.40
2018-05-03T22:07:49.201Z,13.30
2018-05-03T22:12:50.930Z,13.10
2018-05-03T22:17:51.901Z,13.10
2018-05-03T22:22:52.887Z,13.10
2018-05-03T22:27:54.606Z,12.90
2018-05-03T22:32:55.581Z,12.80
2018-05-03T22:37:56.558Z,12.90
2018-05-03T22:42:57.551Z,12.80
2018-05-03T22:47:58.526Z,12.80
2018-05-03T22:52:59.509Z,12.70
2018-05-03T22:58:00.473Z,12.60
2018-05-03T23:03:01.458Z,12.60
2018-05-03T23:08:03.193Z,12.40
2018-05-03T23:13:04.191Z,12.40
2018-05-03T23:18:05.917Z,12.10
2018-05-03T23:23:06.898Z,12.10
2018-05-03T23:28:07.881Z,12.20
2018-05-03T23:33:09.614Z,12.10
2018-05-03T23:38:10.614Z,12.00
2018-05-03T23:43:12.333Z,11.90
2018-05-03T23:48:13.314Z,11.80
2018-05-03T23:53:14.291Z,11.80
2018-05-03T23:58:15.267Z,11.60
